馬祖北竿航空站 - ATIS

METAR RCMT 170400Z 04016KT 9999 FEW012 SCT016 BKN030 28/25 Q1005 NOSIG RMK QFF 1005.4HPA A2969(J)=

站台狀態:Online
最後更新:2019-07-17 12:15:01